Impacts METAR Board
IDs:

KSFO - San Francisco Intl, CA, US

Updated at: 1100 UTC 17 Dec 2018
Potential Impact None Slight Moderate High
Time 16/23Z 17/00Z 17/01Z 17/02Z 17/03Z 17/04Z 17/05Z 17/06Z 17/07Z 17/08Z 17/09Z 17/10Z 17/11Z
Temp58 59 57 56 57 56 55 52 54 52 53 52 54
Dewpt55 54 54 55 54 53 54 51 50 50 51 50 51
Altim29.99 30.00 30.00 30.00 30.01 30.01 30.03 30.05 30.06 30.06 30.07 30.08 30.10
VIS6 5 10 10 10 10 9 4 9 6 10 10 10
CIG22 22 18 16 20 28 29 26 26 38 37 16 11
CoverOVCOVCOVCOVCOVCBKNOVCOVCOVCOVCOVCOVCBKN
FltCatMVFRMVFRMVFRMVFRMVFRMVFRMVFRMVFRMVFRVFRVFRMVFRMVFR
WX-RA BR-RA---RA-RA---RA-RA BR--BR-RA----
WDir13018012013013010002902800150150130
WSpd8 13 8 8 5 10 5 11 4 0 4 5 6
WGst-- 22 22 -- -- -- -- -- -- -- -- -- --
Raw hourly METARs
KSFO 162256Z 13008KT 6SM -RA BR FEW011 BKN022 OVC045 14/13 A2999 RMK AO2 SLP155 P0015 T01440128
KSFO 162356Z COR 18013G22KT 5SM -RA SCT011 BKN022 OVC032 15/12 A3000 RMK AO2 SLP160 P0005 60020 T01500122 10161 20144 53003
KSFO 170056Z 12008G22KT 10SM FEW010 BKN018 OVC085 14/12 A3000 RMK AO2 RAE49 SLP159 P0008 T01390122
KSFO 170156Z 13008KT 10SM -RA FEW008 BKN016 OVC080 13/13 A3000 RMK AO2 RAB04 SLP158 P0006 T01330128
KSFO 170256Z 13005KT 10SM -RA FEW010 BKN020 OVC090 14/12 A3001 RMK AO2 RAE16B47 SLP162 P0001 60015 T01390122 53002
KSFO 170356Z 10010KT 10SM FEW010 BKN028 BKN034 13/12 A3001 RMK AO2 RAE0257 SLP161 P0000 T01330117
KSFO 170456Z VRB05KT 9SM -RA FEW011 BKN029 OVC037 13/12 A3003 RMK AO2 RAB0359 PRESRR SLP168 P0004 T01280122
KSFO 170556Z 29011KT 4SM -RA BR FEW007 BKN026 OVC040 11/11 A3005 RMK AO2 WSHFT 0459 SLP174 P0018 60037 T01110106 10150 20111 53012
KSFO 170656Z 28004KT 9SM FEW006 BKN026 OVC036 12/10 A3006 RMK AO2 RAE02B39E49 SLP177 P0001 T01220100
KSFO 170756Z 00000KT 6SM BR FEW006 SCT013 OVC038 11/10 A3006 RMK AO2 RAB21E46 SLP179 P0000 T01110100 401610111
KSFO 170856Z 15004KT 10SM -RA FEW005 SCT011 OVC037 12/11 A3007 RMK AO2 RAB25 SLP183 P0001 60002 T01170106 53009
KSFO 170956Z 15005KT 10SM FEW005 BKN016 OVC037 11/10 A3008 RMK AO2 RAE0858 SLP186 P0001 T01110100
KSFO 171056Z 13006KT 10SM FEW005 BKN011 BKN016 12/11 A3010 RMK AO2 SLP193 T01220106



Page loaded:  11:40 UTC  |   03:40 AM Pacific  |   04:40 AM Mountain  |   05:40 AM Central  |   06:40 AM Eastern

 

ADVISORIES

FORECASTS

FORECASTS

OBSERVATIONS

USER TOOLS

ABOUT US